createdAt,value
2018-09-30T00:00:27.361Z,6.07
2018-09-30T00:02:55.814Z,10.37
2018-09-30T00:05:24.259Z,4.33
2018-09-30T00:07:52.666Z,7.10
2018-09-30T00:10:21.061Z,4.50
2018-09-30T00:12:49.501Z,4.70
2018-09-30T00:15:17.891Z,5.70
2018-09-30T00:17:46.459Z,5.93
2018-09-30T00:20:14.888Z,6.20
2018-09-30T00:22:43.314Z,5.37
2018-09-30T00:25:16.944Z,6.67
2018-09-30T00:27:45.379Z,6.67
2018-09-30T00:30:13.790Z,6.17
2018-09-30T00:32:42.198Z,7.83
2018-09-30T00:35:10.654Z,7.40
2018-09-30T00:37:39.060Z,9.83
2018-09-30T00:40:07.460Z,9.03
2018-09-30T00:42:35.843Z,8.43
2018-09-30T00:45:04.371Z,4.87
2018-09-30T00:47:32.814Z,8.20
2018-09-30T00:50:01.236Z,5.00
2018-09-30T00:52:29.608Z,7.80
2018-09-30T00:54:58.076Z,6.20
2018-09-30T00:57:26.485Z,6.57
2018-09-30T00:59:54.902Z,5.57
2018-09-30T01:02:23.286Z,5.80
2018-09-30T01:04:51.714Z,4.93
2018-09-30T01:07:20.153Z,5.50
2018-09-30T01:09:48.602Z,5.07
2018-09-30T01:12:16.958Z,8.20
2018-09-30T01:14:45.377Z,6.60
2018-09-30T01:17:13.843Z,5.60
2018-09-30T01:19:42.272Z,4.00
2018-09-30T01:22:10.708Z,5.17
2018-09-30T01:24:39.119Z,5.87
2018-09-30T01:27:07.492Z,5.07
2018-09-30T01:29:35.889Z,10.63
2018-09-30T01:32:04.293Z,4.30
2018-09-30T01:34:32.724Z,3.87
2018-09-30T01:37:01.143Z,5.23
2018-09-30T01:39:29.577Z,7.70
2018-09-30T01:41:57.991Z,6.30
2018-09-30T01:44:26.436Z,5.80
2018-09-30T01:46:54.838Z,9.93
2018-09-30T01:49:23.228Z,6.83
2018-09-30T01:52:56.050Z,9.73
2018-09-30T01:55:24.500Z,6.63
2018-09-30T01:57:52.937Z,5.50
2018-09-30T02:00:21.349Z,5.67
2018-09-30T02:02:49.803Z,9.23
2018-09-30T02:05:18.310Z,4.53
2018-09-30T02:07:47.618Z,6.53
2018-09-30T02:10:16.222Z,7.03
2018-09-30T02:12:44.626Z,6.97
2018-09-30T02:15:13.078Z,5.57
2018-09-30T02:17:41.485Z,5.93
2018-09-30T02:20:09.957Z,4.63
2018-09-30T02:22:38.820Z,6.13
2018-09-30T02:25:07.336Z,8.43
2018-09-30T02:27:35.746Z,4.13
2018-09-30T02:30:04.274Z,7.90
2018-09-30T02:32:32.719Z,4.80
2018-09-30T02:35:01.097Z,5.13
2018-09-30T02:37:29.528Z,6.33
2018-09-30T02:39:57.957Z,5.00
2018-09-30T02:42:26.374Z,4.40
2018-09-30T02:44:54.777Z,5.37
2018-09-30T02:47:23.236Z,4.10
2018-09-30T02:49:51.637Z,10.27
2018-09-30T02:52:20.078Z,3.43
2018-09-30T02:54:48.500Z,3.43
2018-09-30T02:57:16.905Z,5.03
2018-09-30T02:59:45.360Z,4.13
2018-09-30T03:02:13.733Z,4.37
2018-09-30T03:04:42.162Z,3.40
2018-09-30T03:07:15.635Z,8.60
2018-09-30T03:09:44.485Z,7.20
2018-09-30T03:12:12.903Z,7.63
2018-09-30T03:14:41.364Z,6.30
2018-09-30T03:17:09.796Z,3.40
2018-09-30T03:19:38.202Z,14.93
2018-09-30T03:22:06.707Z,10.97
2018-09-30T03:24:35.151Z,6.20
2018-09-30T03:27:04.132Z,6.17
2018-09-30T03:29:32.530Z,7.57
2018-09-30T03:32:00.917Z,9.80
2018-09-30T03:34:29.304Z,8.87
2018-09-30T03:36:57.749Z,9.10
2018-09-30T03:39:26.189Z,6.70
2018-09-30T03:41:54.601Z,7.67
2018-09-30T03:44:23.040Z,7.33
2018-09-30T03:46:51.485Z,4.70
2018-09-30T03:49:19.871Z,8.53
2018-09-30T03:51:48.328Z,5.97
2018-09-30T03:54:16.680Z,4.63
2018-09-30T03:56:45.147Z,5.10
2018-09-30T03:59:13.506Z,4.80
2018-09-30T04:01:41.903Z,4.90
2018-09-30T04:04:10.354Z,4.33
2018-09-30T04:06:38.748Z,8.60
2018-09-30T04:09:08.501Z,4.83
2018-09-30T04:11:37.209Z,4.90
2018-09-30T04:14:05.689Z,7.43
2018-09-30T04:16:34.155Z,5.73
2018-09-30T04:19:02.690Z,8.63
2018-09-30T04:21:31.113Z,5.87
2018-09-30T04:24:04.922Z,9.10
2018-09-30T04:26:33.377Z,3.93
2018-09-30T04:29:01.839Z,6.13
2018-09-30T04:31:30.259Z,5.77
2018-09-30T04:33:58.640Z,6.50
2018-09-30T04:36:27.087Z,6.20
2018-09-30T04:38:55.509Z,5.40
2018-09-30T04:41:23.908Z,5.43
2018-09-30T04:43:52.337Z,6.30
2018-09-30T04:46:20.736Z,9.63
2018-09-30T04:48:49.108Z,9.53
2018-09-30T04:51:17.494Z,3.87
2018-09-30T04:53:45.911Z,4.87
2018-09-30T04:56:14.389Z,8.33
2018-09-30T04:58:42.856Z,6.43
2018-09-30T05:01:11.345Z,5.00
2018-09-30T05:03:39.727Z,5.93
2018-09-30T05:06:08.199Z,3.97
2018-09-30T05:08:36.596Z,10.73
2018-09-30T05:11:05.064Z,4.40
2018-09-30T05:13:33.447Z,5.33
2018-09-30T05:16:01.951Z,7.50
2018-09-30T05:18:30.328Z,5.30
2018-09-30T05:20:58.732Z,5.10
2018-09-30T05:23:27.110Z,3.47
2018-09-30T05:25:55.526Z,6.07
2018-09-30T05:28:23.939Z,8.17
2018-09-30T05:30:52.355Z,7.73
2018-09-30T05:33:20.783Z,4.93
2018-09-30T05:35:49.242Z,5.60
2018-09-30T05:38:17.645Z,4.87
2018-09-30T05:40:46.038Z,4.80
2018-09-30T05:43:14.418Z,6.00
2018-09-30T05:45:42.888Z,9.70
2018-09-30T05:48:11.299Z,4.80
2018-09-30T05:50:39.679Z,3.93
2018-09-30T05:53:08.081Z,5.67
2018-09-30T05:58:20.480Z,4.40
2018-09-30T06:00:48.871Z,7.70
2018-09-30T06:03:17.295Z,5.13
2018-09-30T06:05:45.661Z,6.60
2018-09-30T06:08:14.084Z,6.17
2018-09-30T06:10:42.558Z,4.10
2018-09-30T06:13:10.979Z,7.60
2018-09-30T06:15:39.391Z,7.50
2018-09-30T06:18:07.908Z,4.43
2018-09-30T06:20:36.291Z,4.60
2018-09-30T06:23:04.706Z,3.70
2018-09-30T06:25:33.139Z,5.33
2018-09-30T06:28:01.584Z,5.77
2018-09-30T06:30:30.011Z,3.17
2018-09-30T06:32:58.389Z,5.00
2018-09-30T06:35:26.809Z,4.90
2018-09-30T06:37:56.185Z,4.57
2018-09-30T06:40:24.599Z,7.57
2018-09-30T06:42:55.768Z,10.63
2018-09-30T06:45:24.802Z,5.37
2018-09-30T06:47:53.176Z,4.97
2018-09-30T06:50:21.647Z,5.57
2018-09-30T06:52:50.061Z,7.50
2018-09-30T06:55:18.463Z,12.50
2018-09-30T06:57:46.909Z,5.20
2018-09-30T07:00:15.410Z,6.63
2018-09-30T07:02:43.932Z,5.37
2018-09-30T07:05:12.372Z,7.37
2018-09-30T07:07:40.855Z,6.07
2018-09-30T07:10:09.304Z,20.83
2018-09-30T07:12:37.793Z,12.30
2018-09-30T07:15:06.329Z,9.40
2018-09-30T07:17:34.800Z,10.00
2018-09-30T07:20:03.292Z,6.33
2018-09-30T07:22:31.765Z,13.90
2018-09-30T07:25:01.100Z,9.23
2018-09-30T07:27:29.666Z,12.57
2018-09-30T07:29:58.208Z,9.00
2018-09-30T07:32:26.744Z,10.57
2018-09-30T07:34:55.468Z,5.70
2018-09-30T07:37:23.974Z,11.20
2018-09-30T07:39:52.495Z,8.73
2018-09-30T07:42:21.047Z,10.37
2018-09-30T07:44:49.488Z,6.43
2018-09-30T07:47:18.660Z,12.63
2018-09-30T07:49:47.105Z,6.83
2018-09-30T07:52:15.627Z,6.20
2018-09-30T07:54:44.288Z,11.27
2018-09-30T07:57:12.704Z,7.67
2018-09-30T07:59:41.441Z,19.10
2018-09-30T08:02:09.883Z,12.00
2018-09-30T08:04:38.295Z,14.23
2018-09-30T08:07:06.777Z,9.03
2018-09-30T08:09:35.211Z,6.70
2018-09-30T08:12:04.619Z,8.13
2018-09-30T08:14:33.175Z,10.90
2018-09-30T08:17:01.792Z,9.60
2018-09-30T08:19:30.242Z,13.00
2018-09-30T08:21:59.257Z,10.60
2018-09-30T08:24:27.837Z,9.37
2018-09-30T08:26:56.395Z,7.43
2018-09-30T08:29:24.932Z,8.87
2018-09-30T08:31:53.598Z,5.90
2018-09-30T08:34:22.333Z,13.10
2018-09-30T08:36:51.227Z,9.70
2018-09-30T08:39:19.677Z,14.33
2018-09-30T08:41:48.190Z,13.80
2018-09-30T08:44:16.967Z,11.23
2018-09-30T08:46:45.549Z,9.00
2018-09-30T08:49:14.092Z,13.53
2018-09-30T08:51:42.530Z,9.27
2018-09-30T08:54:10.989Z,10.13
2018-09-30T08:56:39.502Z,13.77
2018-09-30T08:59:08.033Z,9.23
2018-09-30T09:01:36.545Z,11.10
2018-09-30T09:04:05.153Z,8.30
2018-09-30T09:06:33.773Z,11.63
2018-09-30T09:09:02.253Z,7.63
2018-09-30T09:11:30.720Z,10.47
2018-09-30T09:13:59.203Z,9.50
2018-09-30T09:16:27.814Z,8.53
2018-09-30T09:18:56.989Z,8.33
2018-09-30T09:21:25.430Z,12.30
2018-09-30T09:23:54.228Z,12.10
2018-09-30T09:26:22.760Z,9.30
2018-09-30T09:28:51.485Z,8.40
2018-09-30T09:31:20.195Z,14.03
2018-09-30T09:33:48.922Z,14.37
2018-09-30T09:36:17.455Z,4.73
2018-09-30T09:38:45.888Z,10.77
2018-09-30T09:41:14.380Z,10.70
2018-09-30T09:43:43.306Z,8.53
2018-09-30T09:46:11.828Z,14.77
2018-09-30T09:48:40.459Z,12.63
2018-09-30T09:51:08.941Z,6.90
2018-09-30T09:53:37.419Z,14.90
2018-09-30T09:56:05.998Z,19.00
2018-09-30T09:58:34.528Z,8.07
2018-09-30T10:01:04.967Z,9.70
2018-09-30T10:03:33.433Z,9.20
2018-09-30T10:06:01.839Z,9.63
2018-09-30T10:08:30.360Z,16.93
2018-09-30T10:10:58.856Z,12.47
2018-09-30T10:13:27.359Z,9.10
2018-09-30T10:15:55.798Z,17.00
2018-09-30T10:18:24.257Z,16.67
2018-09-30T10:20:53.874Z,9.73
2018-09-30T10:23:22.470Z,15.73
2018-09-30T10:25:51.279Z,16.87
2018-09-30T10:28:19.809Z,16.10
2018-09-30T10:30:48.492Z,13.50
2018-09-30T10:33:16.993Z,13.20
2018-09-30T10:35:45.476Z,11.27
2018-09-30T10:38:14.584Z,21.80
2018-09-30T10:40:43.070Z,13.00
2018-09-30T10:43:11.558Z,9.20
2018-09-30T10:45:40.137Z,12.40
2018-09-30T10:48:08.617Z,11.20
2018-09-30T10:50:37.091Z,9.90
2018-09-30T10:53:05.578Z,11.27
2018-09-30T10:55:34.059Z,15.73
2018-09-30T10:58:02.490Z,14.80
2018-09-30T11:00:30.905Z,13.60
2018-09-30T11:02:59.459Z,16.97
2018-09-30T11:05:27.940Z,8.03
2018-09-30T11:07:56.409Z,20.03
2018-09-30T11:10:24.882Z,14.40
2018-09-30T11:12:53.349Z,10.47
2018-09-30T11:15:21.808Z,10.47
2018-09-30T11:17:50.267Z,15.13
2018-09-30T11:20:18.789Z,15.33
2018-09-30T11:22:47.297Z,9.73
2018-09-30T11:25:16.680Z,14.17
2018-09-30T11:27:45.576Z,10.43
2018-09-30T11:30:14.172Z,12.33
2018-09-30T11:32:42.633Z,14.70
2018-09-30T11:35:11.180Z,22.73
2018-09-30T11:37:39.632Z,15.93
2018-09-30T11:40:08.147Z,8.37
2018-09-30T11:42:36.691Z,10.40
2018-09-30T11:45:05.138Z,10.70
2018-09-30T11:47:33.568Z,9.50
2018-09-30T11:50:02.079Z,5.53
2018-09-30T11:52:30.562Z,12.33
2018-09-30T11:54:58.978Z,10.23
2018-09-30T11:57:27.423Z,12.30
2018-09-30T11:59:55.817Z,11.90
2018-09-30T12:02:24.389Z,18.83
2018-09-30T12:04:52.822Z,25.33
2018-09-30T12:07:22.026Z,12.80
2018-09-30T12:09:50.868Z,12.80
2018-09-30T12:12:19.526Z,11.53
2018-09-30T12:14:48.052Z,9.50
2018-09-30T12:17:16.649Z,9.33
2018-09-30T12:19:45.132Z,11.10
2018-09-30T12:22:13.590Z,6.77
2018-09-30T12:24:42.148Z,9.53
2018-09-30T12:27:10.613Z,8.93
2018-09-30T12:29:39.082Z,6.03
2018-09-30T12:32:07.675Z,8.33
2018-09-30T12:34:36.196Z,14.23
2018-09-30T12:37:04.658Z,15.27
2018-09-30T12:39:33.193Z,24.00
2018-09-30T12:42:01.816Z,12.93
2018-09-30T12:44:30.336Z,15.07
2018-09-30T12:46:58.788Z,7.33
2018-09-30T12:49:27.257Z,7.03
2018-09-30T12:51:55.740Z,8.93
2018-09-30T12:54:24.347Z,12.33
2018-09-30T12:56:52.847Z,10.83
2018-09-30T12:59:21.313Z,10.30
2018-09-30T13:01:50.153Z,13.10
2018-09-30T13:04:18.693Z,8.10
2018-09-30T13:06:47.252Z,11.60
2018-09-30T13:09:15.733Z,10.27
2018-09-30T13:11:44.386Z,11.10
2018-09-30T13:14:12.872Z,10.37
2018-09-30T13:16:41.320Z,8.47
2018-09-30T13:19:09.784Z,9.70
2018-09-30T13:21:38.204Z,9.10
2018-09-30T13:24:06.705Z,8.93
2018-09-30T13:26:35.176Z,10.60
2018-09-30T13:29:03.698Z,7.37
2018-09-30T13:31:32.096Z,17.40
2018-09-30T13:34:00.591Z,10.93
2018-09-30T13:36:29.063Z,12.73
2018-09-30T13:38:57.601Z,11.03
2018-09-30T13:41:26.667Z,7.63
2018-09-30T13:43:55.165Z,10.50
2018-09-30T13:46:23.597Z,11.00
2018-09-30T13:48:52.020Z,11.03
2018-09-30T13:51:20.522Z,10.40
2018-09-30T13:53:48.895Z,12.13
2018-09-30T13:56:17.384Z,9.33
2018-09-30T13:58:45.937Z,16.67
2018-09-30T14:01:14.391Z,17.73
2018-09-30T14:03:42.879Z,11.70
2018-09-30T14:06:11.319Z,5.83
2018-09-30T14:08:39.836Z,9.43
2018-09-30T14:11:08.321Z,14.30
2018-09-30T14:13:36.740Z,14.70
2018-09-30T14:16:05.261Z,9.90
2018-09-30T14:18:35.860Z,13.67
2018-09-30T14:21:04.353Z,9.90
2018-09-30T14:23:32.819Z,12.90
2018-09-30T14:26:01.285Z,8.60
2018-09-30T14:28:29.732Z,8.30
2018-09-30T14:30:58.193Z,10.77
2018-09-30T14:33:27.306Z,11.43
2018-09-30T14:35:55.756Z,9.60
2018-09-30T14:38:24.515Z,5.57
2018-09-30T14:40:53.002Z,9.03
2018-09-30T14:43:21.520Z,11.63
2018-09-30T14:45:50.345Z,7.83
2018-09-30T14:48:18.867Z,17.10
2018-09-30T14:50:47.262Z,11.47
2018-09-30T14:53:15.749Z,9.30
2018-09-30T14:55:44.188Z,9.03
2018-09-30T14:58:12.887Z,9.27
2018-09-30T15:00:41.354Z,11.10
2018-09-30T15:03:09.989Z,12.40
2018-09-30T15:05:38.568Z,8.83
2018-09-30T15:08:07.159Z,8.80
2018-09-30T15:10:36.223Z,11.47
2018-09-30T15:13:04.765Z,10.17
2018-09-30T15:15:33.202Z,9.83
2018-09-30T15:18:01.630Z,7.90
2018-09-30T15:20:30.120Z,11.73
2018-09-30T15:22:58.569Z,13.83
2018-09-30T15:25:27.093Z,7.70
2018-09-30T15:27:55.702Z,12.13
2018-09-30T15:30:24.173Z,12.10
2018-09-30T15:32:52.672Z,8.97
2018-09-30T15:35:21.195Z,17.57
2018-09-30T15:37:49.647Z,9.10
2018-09-30T15:40:18.136Z,6.00
2018-09-30T15:42:46.678Z,12.03
2018-09-30T15:45:15.077Z,15.03
2018-09-30T15:47:43.529Z,10.30
2018-09-30T15:50:12.054Z,6.97
2018-09-30T15:52:40.531Z,15.80
2018-09-30T15:55:08.944Z,13.60
2018-09-30T15:57:37.388Z,8.80
2018-09-30T16:00:05.911Z,13.30
2018-09-30T16:02:34.387Z,10.07
2018-09-30T16:05:02.872Z,6.80
2018-09-30T16:07:31.297Z,8.00
2018-09-30T16:09:59.713Z,10.40
2018-09-30T16:12:28.087Z,11.30
2018-09-30T16:14:56.500Z,7.53
2018-09-30T16:17:25.016Z,9.17
2018-09-30T16:19:53.542Z,11.43
2018-09-30T16:22:21.953Z,8.70
2018-09-30T16:24:50.432Z,10.33
2018-09-30T16:27:18.977Z,12.40
2018-09-30T16:29:47.573Z,9.53
2018-09-30T16:32:16.078Z,14.60
2018-09-30T16:34:44.578Z,20.17
2018-09-30T16:37:13.167Z,14.23
2018-09-30T16:39:41.632Z,7.63
2018-09-30T16:42:10.070Z,9.07
2018-09-30T16:44:38.565Z,7.67
2018-09-30T16:47:07.217Z,10.50
2018-09-30T16:49:35.623Z,5.83
2018-09-30T16:52:04.103Z,10.97
2018-09-30T16:54:32.553Z,11.23
2018-09-30T16:57:01.041Z,8.87
2018-09-30T16:59:29.541Z,9.90
2018-09-30T17:01:58.050Z,9.80
2018-09-30T17:04:26.511Z,8.40
2018-09-30T17:06:55.027Z,14.53
2018-09-30T17:09:23.480Z,12.17
2018-09-30T17:11:51.908Z,6.40
2018-09-30T17:14:20.357Z,7.67
2018-09-30T17:16:48.904Z,12.37
2018-09-30T17:19:17.429Z,10.23
2018-09-30T17:21:45.922Z,11.53
2018-09-30T17:24:14.336Z,17.37
2018-09-30T17:26:42.788Z,13.80
2018-09-30T17:29:11.193Z,14.90
2018-09-30T17:31:39.652Z,14.67
2018-09-30T17:34:08.117Z,9.60
2018-09-30T17:36:36.664Z,13.13
2018-09-30T17:39:07.188Z,11.83
2018-09-30T17:41:35.618Z,10.97
2018-09-30T17:44:04.684Z,14.33
2018-09-30T17:46:33.054Z,13.70
2018-09-30T17:49:01.587Z,12.07
2018-09-30T17:51:30.086Z,16.43
2018-09-30T17:53:58.558Z,9.90
2018-09-30T17:56:27.084Z,19.40
2018-09-30T17:58:55.567Z,19.50
2018-09-30T18:01:23.970Z,11.10
2018-09-30T18:03:52.475Z,13.17
2018-09-30T18:06:20.976Z,12.27
2018-09-30T18:08:49.473Z,14.80
2018-09-30T18:11:17.905Z,16.17
2018-09-30T18:13:46.342Z,22.90
2018-09-30T18:16:14.885Z,11.60
2018-09-30T18:18:43.351Z,17.43
2018-09-30T18:21:11.984Z,18.30
2018-09-30T18:23:40.828Z,15.40
2018-09-30T18:26:09.607Z,12.63
2018-09-30T18:28:38.286Z,12.47
2018-09-30T18:31:06.907Z,18.27
2018-09-30T18:33:35.433Z,17.60
2018-09-30T18:36:03.951Z,11.87
2018-09-30T18:38:32.698Z,18.53
2018-09-30T18:41:01.474Z,15.73
2018-09-30T18:43:30.162Z,20.77
2018-09-30T18:45:58.814Z,11.17
2018-09-30T18:48:27.583Z,18.40
2018-09-30T18:50:56.450Z,14.20
2018-09-30T18:53:25.314Z,35.90
2018-09-30T18:55:54.178Z,32.73
2018-09-30T18:58:23.065Z,35.53
2018-09-30T19:00:51.807Z,34.03
2018-09-30T19:03:20.777Z,26.87
2018-09-30T19:05:49.521Z,27.93
2018-09-30T19:08:18.273Z,22.43
2018-09-30T19:10:47.948Z,13.10
2018-09-30T19:13:16.695Z,15.37
2018-09-30T19:15:45.556Z,19.47
2018-09-30T19:18:14.723Z,12.47
2018-09-30T19:20:43.514Z,10.97
2018-09-30T19:23:12.382Z,14.90
2018-09-30T19:25:40.990Z,15.10
2018-09-30T19:28:09.428Z,12.17
2018-09-30T19:30:37.877Z,12.27
2018-09-30T19:33:06.316Z,11.33
2018-09-30T19:35:34.756Z,12.80
2018-09-30T19:38:03.982Z,13.90
2018-09-30T19:40:32.426Z,16.40
2018-09-30T19:43:00.917Z,15.40
2018-09-30T19:45:29.641Z,20.90
2018-09-30T19:47:58.108Z,19.43
2018-09-30T19:50:26.566Z,15.53
2018-09-30T19:52:55.054Z,17.20
2018-09-30T19:55:23.527Z,22.03
2018-09-30T19:57:52.045Z,14.30
2018-09-30T20:00:20.499Z,17.60
2018-09-30T20:02:48.979Z,14.53
2018-09-30T20:05:17.418Z,13.57
2018-09-30T20:10:30.916Z,14.80
2018-09-30T20:12:59.588Z,10.27
2018-09-30T20:15:28.212Z,22.97
2018-09-30T20:17:56.700Z,14.13
2018-09-30T20:20:25.157Z,15.93
2018-09-30T20:22:53.617Z,20.80
2018-09-30T20:25:22.044Z,15.03
2018-09-30T20:27:50.551Z,19.40
2018-09-30T20:30:19.065Z,16.90
2018-09-30T20:32:47.578Z,12.50
2018-09-30T20:35:16.002Z,18.47
2018-09-30T20:37:44.488Z,17.20
2018-09-30T20:40:13.032Z,20.43
2018-09-30T20:42:41.458Z,18.93
2018-09-30T20:45:09.917Z,17.00
2018-09-30T20:47:38.365Z,13.87
2018-09-30T20:50:07.128Z,11.63
2018-09-30T20:52:35.626Z,19.57
2018-09-30T20:55:04.399Z,15.53
2018-09-30T20:57:32.921Z,16.13
2018-09-30T21:00:01.487Z,16.23
2018-09-30T21:02:29.993Z,12.90
2018-09-30T21:04:58.566Z,14.33
2018-09-30T21:07:27.008Z,14.20
2018-09-30T21:09:55.499Z,18.43
2018-09-30T21:12:24.001Z,11.83
2018-09-30T21:14:52.449Z,11.43
2018-09-30T21:17:20.944Z,10.27
2018-09-30T21:19:49.437Z,10.03
2018-09-30T21:22:17.894Z,18.43
2018-09-30T21:24:46.292Z,16.00
2018-09-30T21:27:14.867Z,22.60
2018-09-30T21:29:43.299Z,12.90
2018-09-30T21:32:11.752Z,17.07
2018-09-30T21:34:40.135Z,15.80
2018-09-30T21:37:08.667Z,11.17
2018-09-30T21:39:37.092Z,15.50
2018-09-30T21:42:05.629Z,12.03
2018-09-30T21:44:34.230Z,16.70
2018-09-30T21:47:03.309Z,17.63
2018-09-30T21:49:32.670Z,18.40
2018-09-30T21:52:01.076Z,15.97
2018-09-30T21:54:29.553Z,14.00
2018-09-30T21:56:57.992Z,13.63
2018-09-30T21:59:26.437Z,16.07
2018-09-30T22:01:54.843Z,17.50
2018-09-30T22:04:23.309Z,10.87
2018-09-30T22:06:51.723Z,11.57
2018-09-30T22:09:20.192Z,9.40
2018-09-30T22:11:48.845Z,9.23
2018-09-30T22:14:17.368Z,11.50
2018-09-30T22:16:45.793Z,15.40
2018-09-30T22:19:14.256Z,12.67
2018-09-30T22:21:43.340Z,7.00
2018-09-30T22:24:11.740Z,13.03
2018-09-30T22:26:40.161Z,11.17
2018-09-30T22:29:08.633Z,10.57
2018-09-30T22:31:37.058Z,14.03
2018-09-30T22:34:05.473Z,13.73
2018-09-30T22:36:34.068Z,12.30
2018-09-30T22:39:02.538Z,9.53
2018-09-30T22:41:30.973Z,10.30
2018-09-30T22:43:59.408Z,13.30
2018-09-30T22:46:27.863Z,9.37
2018-09-30T22:48:56.359Z,8.30
2018-09-30T22:51:24.805Z,9.57
2018-09-30T22:53:53.374Z,11.87
2018-09-30T22:56:21.851Z,14.03
2018-09-30T22:58:50.256Z,12.40
2018-09-30T23:01:18.728Z,10.20
2018-09-30T23:03:47.316Z,11.70
2018-09-30T23:06:15.770Z,12.73
2018-09-30T23:08:44.199Z,12.60
2018-09-30T23:11:12.625Z,20.33
2018-09-30T23:13:41.000Z,8.33
2018-09-30T23:16:09.504Z,12.97
2018-09-30T23:18:37.964Z,11.37
2018-09-30T23:21:06.425Z,13.40
2018-09-30T23:23:34.992Z,13.40
2018-09-30T23:26:03.436Z,16.40
2018-09-30T23:28:31.833Z,9.33
2018-09-30T23:31:00.254Z,11.33
2018-09-30T23:33:28.657Z,12.43
2018-09-30T23:35:57.047Z,11.10
2018-09-30T23:38:25.509Z,11.47
2018-09-30T23:40:53.921Z,9.90
2018-09-30T23:43:22.337Z,20.27
2018-09-30T23:45:50.748Z,15.53
2018-09-30T23:48:19.234Z,15.47
2018-09-30T23:50:47.657Z,11.37
2018-09-30T23:53:16.098Z,10.30
2018-09-30T23:55:44.513Z,18.03
2018-09-30T23:58:13.833Z,16.83
